Corpus Christi Jet Center

SKYE FBO - AIRPORT SERVICES
McCampbell-Porter Airport KTFP
Call Us 24/7: (361) 758-2000
KTFP - McCampbell-Porter Airport
Updated: Mon, 21-Jan-2019 8:35am PST
Clear
Clear
 Wind from SSE
Wind: SSE 16 mph , 26 km/h, Gust: 21 mph , 33 km/h
Temperature: 66°F , 19°C
Dew Point: 52°F , 11°C
Humidity: 60%
Barometer: 30.19 inHg , 1022.4 hPa
Clouds: Clear
Visibility: 10 miles , 16 km
2019/01/21 16:35 KTFP 211635Z AUTO 16014G18KT 10SM CLR 19/11 A3019 RMK AO2 T01880110 PNO

Location

Skye FBO - Airport Services
McCampbell-Porter Airport KTFP
3141 FM 3512
Aransas Pass, TX 78336-9728
(361) 758-2000
2 miles N of Ingleside, TX
Only 15 min from downtown Corpus Christi 2 miles N of Ingleside, Texas and only 15 minutes from downtown Corpus Christi, Texas

(click to enlarge)

Skyview Aviation BBB Business Review

King Air B200 Available Immediately

Call for a quote.
361-758-2000

Click to enlarge:  
King Air Exterior King Air Interior